sensor_id;sensor_type;location;lat;lon;timestamp;P1;durP1;ratioP1;P2;durP2;ratioP2
60100;SDS011;45978;53.646;55.930;2023-01-26T00:00:14;43.28;;;15.52;;
60100;SDS011;45978;53.646;55.930;2023-01-26T00:01:17;39.10;;;16.85;;
60100;SDS011;45978;53.646;55.930;2023-01-26T00:02:20;40.13;;;16.33;;
60100;SDS011;45978;53.646;55.930;2023-01-26T00:03:21;46.53;;;17.75;;
60100;SDS011;45978;53.646;55.930;2023-01-26T00:04:23;41.20;;;16.83;;
60100;SDS011;45978;53.646;55.930;2023-01-26T00:05:25;33.90;;;14.73;;
60100;SDS011;45978;53.646;55.930;2023-01-26T00:06:26;35.20;;;14.30;;
60100;SDS011;45978;53.646;55.930;2023-01-26T00:07:27;42.42;;;15.60;;
60100;SDS011;45978;53.646;55.930;2023-01-26T00:08:29;36.70;;;14.55;;
60100;SDS011;45978;53.646;55.930;2023-01-26T00:09:30;37.53;;;13.60;;
60100;SDS011;45978;53.646;55.930;2023-01-26T00:10:31;45.90;;;17.52;;
60100;SDS011;45978;53.646;55.930;2023-01-26T00:11:37;43.20;;;16.55;;
60100;SDS011;45978;53.646;55.930;2023-01-26T00:12:38;47.05;;;18.42;;
60100;SDS011;45978;53.646;55.930;2023-01-26T00:13:41;31.20;;;13.60;;
60100;SDS011;45978;53.646;55.930;2023-01-26T00:14:45;42.58;;;17.45;;
60100;SDS011;45978;53.646;55.930;2023-01-26T00:15:49;33.42;;;13.43;;
60100;SDS011;45978;53.646;55.930;2023-01-26T00:16:51;34.72;;;15.80;;
60100;SDS011;45978;53.646;55.930;2023-01-26T00:17:55;42.30;;;17.50;;
60100;SDS011;45978;53.646;55.930;2023-01-26T00:18:57;38.33;;;15.65;;
60100;SDS011;45978;53.646;55.930;2023-01-26T00:20:01;44.72;;;16.77;;
60100;SDS011;45978;53.646;55.930;2023-01-26T00:21:04;49.60;;;17.77;;
60100;SDS011;45978;53.646;55.930;2023-01-26T00:22:08;38.40;;;16.08;;
60100;SDS011;45978;53.646;55.930;2023-01-26T00:23:10;46.05;;;17.80;;
60100;SDS011;45978;53.646;55.930;2023-01-26T00:24:12;44.70;;;15.90;;
60100;SDS011;45978;53.646;55.930;2023-01-26T00:25:13;35.65;;;15.45;;
60100;SDS011;45978;53.646;55.930;2023-01-26T00:26:18;47.40;;;17.55;;
60100;SDS011;45978;53.646;55.930;2023-01-26T00:27:24;45.40;;;16.52;;
60100;SDS011;45978;53.646;55.930;2023-01-26T00:28:28;39.28;;;16.73;;
60100;SDS011;45978;53.646;55.930;2023-01-26T00:29:29;48.53;;;16.80;;
60100;SDS011;45978;53.646;55.930;2023-01-26T00:30:33;41.05;;;17.20;;
60100;SDS011;45978;53.646;55.930;2023-01-26T00:31:35;44.10;;;15.68;;
60100;SDS011;45978;53.646;55.930;2023-01-26T00:32:37;48.53;;;18.27;;
60100;SDS011;45978;53.646;55.930;2023-01-26T00:33:39;42.03;;;16.92;;
60100;SDS011;45978;53.646;55.930;2023-01-26T00:34:44;47.22;;;19.10;;
60100;SDS011;45978;53.646;55.930;2023-01-26T00:35:52;53.50;;;19.25;;
60100;SDS011;45978;53.646;55.930;2023-01-26T00:36:54;46.85;;;18.80;;
60100;SDS011;45978;53.646;55.930;2023-01-26T00:37:57;52.17;;;17.92;;
60100;SDS011;45978;53.646;55.930;2023-01-26T00:39:00;46.58;;;18.23;;
60100;SDS011;45978;53.646;55.930;2023-01-26T00:40:02;43.25;;;15.30;;
60100;SDS011;45978;53.646;55.930;2023-01-26T00:41:05;29.35;;;12.35;;
60100;SDS011;45978;53.646;55.930;2023-01-26T00:42:07;37.75;;;15.57;;
60100;SDS011;45978;53.646;55.930;2023-01-26T00:43:15;39.75;;;16.02;;
60100;SDS011;45978;53.646;55.930;2023-01-26T00:44:18;57.20;;;19.95;;
60100;SDS011;45978;53.646;55.930;2023-01-26T00:45:20;40.58;;;15.15;;
60100;SDS011;45978;53.646;55.930;2023-01-26T00:46:21;44.25;;;16.50;;
60100;SDS011;45978;53.646;55.930;2023-01-26T00:47:22;49.53;;;17.02;;
60100;SDS011;45978;53.646;55.930;2023-01-26T00:48:24;45.03;;;17.90;;
60100;SDS011;45978;53.646;55.930;2023-01-26T00:49:28;53.03;;;20.05;;
60100;SDS011;45978;53.646;55.930;2023-01-26T00:50:30;46.60;;;20.08;;
60100;SDS011;45978;53.646;55.930;2023-01-26T00:51:31;49.72;;;19.30;;
60100;SDS011;45978;53.646;55.930;2023-01-26T00:52:32;36.78;;;15.43;;
60100;SDS011;45978;53.646;55.930;2023-01-26T00:53:36;43.60;;;17.27;;
60100;SDS011;45978;53.646;55.930;2023-01-26T00:54:38;54.60;;;19.38;;
60100;SDS011;45978;53.646;55.930;2023-01-26T00:55:40;45.80;;;18.42;;
60100;SDS011;45978;53.646;55.930;2023-01-26T00:56:42;56.90;;;21.27;;
60100;SDS011;45978;53.646;55.930;2023-01-26T00:57:44;48.28;;;20.08;;
60100;SDS011;45978;53.646;55.930;2023-01-26T00:58:45;55.10;;;19.30;;
60100;SDS011;45978;53.646;55.930;2023-01-26T00:59:47;57.92;;;20.00;;
60100;SDS011;45978;53.646;55.930;2023-01-26T01:00:48;57.22;;;21.48;;
60100;SDS011;45978;53.646;55.930;2023-01-26T01:01:50;59.05;;;21.38;;
60100;SDS011;45978;53.646;55.930;2023-01-26T01:02:53;53.88;;;19.67;;
60100;SDS011;45978;53.646;55.930;2023-01-26T01:03:55;63.05;;;24.15;;
60100;SDS011;45978;53.646;55.930;2023-01-26T01:04:57;76.78;;;26.55;;
60100;SDS011;45978;53.646;55.930;2023-01-26T01:06:00;65.68;;;24.55;;
60100;SDS011;45978;53.646;55.930;2023-01-26T01:07:05;71.70;;;24.75;;
60100;SDS011;45978;53.646;55.930;2023-01-26T01:08:07;73.97;;;26.70;;
60100;SDS011;45978;53.646;55.930;2023-01-26T01:09:08;89.22;;;29.83;;
60100;SDS011;45978;53.646;55.930;2023-01-26T01:10:11;80.95;;;26.60;;
60100;SDS011;45978;53.646;55.930;2023-01-26T01:11:25;83.97;;;29.02;;
60100;SDS011;45978;53.646;55.930;2023-01-26T01:12:28;77.30;;;26.45;;
60100;SDS011;45978;53.646;55.930;2023-01-26T01:13:30;88.20;;;30.08;;
60100;SDS011;45978;53.646;55.930;2023-01-26T01:14:32;105.38;;;33.90;;
60100;SDS011;45978;53.646;55.930;2023-01-26T01:15:33;98.25;;;31.73;;
60100;SDS011;45978;53.646;55.930;2023-01-26T01:16:34;85.05;;;28.20;;
60100;SDS011;45978;53.646;55.930;2023-01-26T01:17:36;76.57;;;28.15;;
60100;SDS011;45978;53.646;55.930;2023-01-26T01:18:38;61.90;;;21.20;;
60100;SDS011;45978;53.646;55.930;2023-01-26T01:19:39;73.28;;;28.00;;
60100;SDS011;45978;53.646;55.930;2023-01-26T01:20:42;86.32;;;29.50;;
60100;SDS011;45978;53.646;55.930;2023-01-26T01:21:45;81.30;;;28.17;;
60100;SDS011;45978;53.646;55.930;2023-01-26T01:22:49;82.57;;;26.70;;
60100;SDS011;45978;53.646;55.930;2023-01-26T01:23:52;61.38;;;21.65;;
60100;SDS011;45978;53.646;55.930;2023-01-26T01:24:53;79.30;;;26.35;;
60100;SDS011;45978;53.646;55.930;2023-01-26T01:25:57;77.47;;;25.52;;
60100;SDS011;45978;53.646;55.930;2023-01-26T01:27:01;63.33;;;21.45;;
60100;SDS011;45978;53.646;55.930;2023-01-26T01:28:02;76.70;;;22.55;;
60100;SDS011;45978;53.646;55.930;2023-01-26T01:29:03;55.38;;;20.20;;
60100;SDS011;45978;53.646;55.930;2023-01-26T01:30:06;31.45;;;13.50;;
60100;SDS011;45978;53.646;55.930;2023-01-26T01:31:09;47.05;;;15.25;;
60100;SDS011;45978;53.646;55.930;2023-01-26T01:32:13;63.78;;;22.08;;
60100;SDS011;45978;53.646;55.930;2023-01-26T01:33:14;46.42;;;16.35;;
60100;SDS011;45978;53.646;55.930;2023-01-26T01:34:15;54.30;;;18.58;;
60100;SDS011;45978;53.646;55.930;2023-01-26T01:35:17;64.03;;;20.48;;
60100;SDS011;45978;53.646;55.930;2023-01-26T01:36:18;63.10;;;21.65;;
60100;SDS011;45978;53.646;55.930;2023-01-26T01:37:19;84.45;;;25.08;;
60100;SDS011;45978;53.646;55.930;2023-01-26T01:38:21;49.53;;;19.02;;
60100;SDS011;45978;53.646;55.930;2023-01-26T01:39:22;68.80;;;24.98;;
60100;SDS011;45978;53.646;55.930;2023-01-26T01:40:24;78.55;;;26.58;;
60100;SDS011;45978;53.646;55.930;2023-01-26T01:41:26;66.85;;;24.13;;
60100;SDS011;45978;53.646;55.930;2023-01-26T01:42:27;74.72;;;24.98;;
60100;SDS011;45978;53.646;55.930;2023-01-26T01:43:28;49.90;;;18.48;;
60100;SDS011;45978;53.646;55.930;2023-01-26T01:44:30;74.80;;;24.38;;
60100;SDS011;45978;53.646;55.930;2023-01-26T01:45:37;59.15;;;23.75;;
60100;SDS011;45978;53.646;55.930;2023-01-26T01:46:44;74.80;;;26.67;;
60100;SDS011;45978;53.646;55.930;2023-01-26T01:49:25;57.55;;;22.73;;
60100;SDS011;45978;53.646;55.930;2023-01-26T01:50:30;58.70;;;21.42;;
60100;SDS011;45978;53.646;55.930;2023-01-26T01:51:46;75.85;;;27.92;;
60100;SDS011;45978;53.646;55.930;2023-01-26T01:52:53;80.43;;;29.23;;
60100;SDS011;45978;53.646;55.930;2023-01-26T01:53:56;89.13;;;29.58;;
60100;SDS011;45978;53.646;55.930;2023-01-26T01:55:04;76.57;;;27.45;;
60100;SDS011;45978;53.646;55.930;2023-01-26T01:56:11;92.97;;;30.63;;
60100;SDS011;45978;53.646;55.930;2023-01-26T01:57:21;76.55;;;27.75;;
60100;SDS011;45978;53.646;55.930;2023-01-26T01:58:30;80.95;;;28.92;;
60100;SDS011;45978;53.646;55.930;2023-01-26T01:59:36;89.90;;;30.75;;
60100;SDS011;45978;53.646;55.930;2023-01-26T02:00:37;74.25;;;28.67;;
60100;SDS011;45978;53.646;55.930;2023-01-26T02:01:39;82.80;;;30.58;;
60100;SDS011;45978;53.646;55.930;2023-01-26T02:02:43;84.70;;;31.90;;
60100;SDS011;45978;53.646;55.930;2023-01-26T02:04:05;89.07;;;30.80;;
60100;SDS011;45978;53.646;55.930;2023-01-26T02:05:14;79.93;;;32.15;;
60100;SDS011;45978;53.646;55.930;2023-01-26T02:07:37;92.95;;;33.92;;
60100;SDS011;45978;53.646;55.930;2023-01-26T02:08:39;93.00;;;33.65;;
60100;SDS011;45978;53.646;55.930;2023-01-26T02:09:45;108.53;;;36.67;;
60100;SDS011;45978;53.646;55.930;2023-01-26T02:11:39;90.85;;;34.42;;
60100;SDS011;45978;53.646;55.930;2023-01-26T02:12:50;100.32;;;36.45;;
60100;SDS011;45978;53.646;55.930;2023-01-26T02:14:04;103.93;;;37.42;;
60100;SDS011;45978;53.646;55.930;2023-01-26T02:15:08;106.88;;;36.70;;
60100;SDS011;45978;53.646;55.930;2023-01-26T02:16:10;100.85;;;36.83;;
60100;SDS011;45978;53.646;55.930;2023-01-26T02:17:13;94.07;;;34.53;;
60100;SDS011;45978;53.646;55.930;2023-01-26T02:18:14;91.57;;;33.00;;
60100;SDS011;45978;53.646;55.930;2023-01-26T02:19:22;87.35;;;34.08;;
60100;SDS011;45978;53.646;55.930;2023-01-26T02:20:49;63.38;;;22.70;;
60100;SDS011;45978;53.646;55.930;2023-01-26T02:21:53;89.07;;;31.45;;
60100;SDS011;45978;53.646;55.930;2023-01-26T02:24:58;78.82;;;27.33;;
60100;SDS011;45978;53.646;55.930;2023-01-26T02:26:07;87.25;;;29.15;;
60100;SDS011;45978;53.646;55.930;2023-01-26T02:27:30;92.28;;;33.17;;
60100;SDS011;45978;53.646;55.930;2023-01-26T02:28:31;93.13;;;30.65;;
60100;SDS011;45978;53.646;55.930;2023-01-26T02:29:32;73.90;;;26.10;;
60100;SDS011;45978;53.646;55.930;2023-01-26T02:30:34;86.60;;;28.90;;
60100;SDS011;45978;53.646;55.930;2023-01-26T02:31:36;84.68;;;29.92;;
60100;SDS011;45978;53.646;55.930;2023-01-26T02:32:38;89.25;;;28.15;;
60100;SDS011;45978;53.646;55.930;2023-01-26T02:33:40;75.60;;;26.48;;
60100;SDS011;45978;53.646;55.930;2023-01-26T02:34:45;91.63;;;30.73;;
60100;SDS011;45978;53.646;55.930;2023-01-26T02:35:47;81.32;;;29.05;;
60100;SDS011;45978;53.646;55.930;2023-01-26T02:36:56;88.28;;;30.50;;
60100;SDS011;45978;53.646;55.930;2023-01-26T02:37:59;84.65;;;30.50;;
60100;SDS011;45978;53.646;55.930;2023-01-26T02:40:12;90.07;;;29.48;;
60100;SDS011;45978;53.646;55.930;2023-01-26T02:41:18;91.55;;;29.00;;
60100;SDS011;45978;53.646;55.930;2023-01-26T02:42:38;79.88;;;26.50;;
60100;SDS011;45978;53.646;55.930;2023-01-26T02:43:41;98.90;;;31.92;;
60100;SDS011;45978;53.646;55.930;2023-01-26T02:44:42;84.78;;;27.52;;
60100;SDS011;45978;53.646;55.930;2023-01-26T02:45:45;89.88;;;29.42;;
60100;SDS011;45978;53.646;55.930;2023-01-26T02:46:46;92.93;;;31.35;;
60100;SDS011;45978;53.646;55.930;2023-01-26T02:47:49;92.97;;;29.90;;
60100;SDS011;45978;53.646;55.930;2023-01-26T02:48:50;81.50;;;29.02;;
60100;SDS011;45978;53.646;55.930;2023-01-26T02:50:10;69.80;;;25.25;;
60100;SDS011;45978;53.646;55.930;2023-01-26T02:51:12;84.57;;;31.92;;
60100;SDS011;45978;53.646;55.930;2023-01-26T02:52:14;91.57;;;30.17;;
60100;SDS011;45978;53.646;55.930;2023-01-26T02:53:19;101.55;;;33.60;;
60100;SDS011;45978;53.646;55.930;2023-01-26T02:54:20;49.70;;;20.17;;
60100;SDS011;45978;53.646;55.930;2023-01-26T02:55:40;93.38;;;33.42;;
60100;SDS011;45978;53.646;55.930;2023-01-26T02:56:42;101.13;;;32.58;;
60100;SDS011;45978;53.646;55.930;2023-01-26T02:57:43;100.82;;;34.83;;
60100;SDS011;45978;53.646;55.930;2023-01-26T02:58:46;94.75;;;32.40;;
60100;SDS011;45978;53.646;55.930;2023-01-26T02:59:47;78.10;;;28.52;;
60100;SDS011;45978;53.646;55.930;2023-01-26T03:00:49;74.30;;;24.92;;
60100;SDS011;45978;53.646;55.930;2023-01-26T03:01:50;85.60;;;29.10;;
60100;SDS011;45978;53.646;55.930;2023-01-26T03:02:53;90.93;;;30.65;;
60100;SDS011;45978;53.646;55.930;2023-01-26T03:03:58;59.28;;;19.50;;
60100;SDS011;45978;53.646;55.930;2023-01-26T03:04:59;88.70;;;31.00;;
60100;SDS011;45978;53.646;55.930;2023-01-26T03:06:01;98.75;;;35.25;;
60100;SDS011;45978;53.646;55.930;2023-01-26T03:07:04;88.55;;;31.25;;
60100;SDS011;45978;53.646;55.930;2023-01-26T03:08:06;78.25;;;28.58;;
60100;SDS011;45978;53.646;55.930;2023-01-26T03:09:10;91.38;;;33.30;;
60100;SDS011;45978;53.646;55.930;2023-01-26T03:10:11;87.20;;;31.05;;
60100;SDS011;45978;53.646;55.930;2023-01-26T03:11:13;87.60;;;29.65;;
60100;SDS011;45978;53.646;55.930;2023-01-26T03:12:14;90.55;;;33.28;;
60100;SDS011;45978;53.646;55.930;2023-01-26T03:13:16;85.78;;;31.75;;
60100;SDS011;45978;53.646;55.930;2023-01-26T03:14:17;82.18;;;27.73;;
60100;SDS011;45978;53.646;55.930;2023-01-26T03:15:19;80.15;;;30.90;;
60100;SDS011;45978;53.646;55.930;2023-01-26T03:16:43;104.38;;;32.83;;
60100;SDS011;45978;53.646;55.930;2023-01-26T03:17:44;61.47;;;23.42;;
60100;SDS011;45978;53.646;55.930;2023-01-26T03:18:45;81.00;;;31.23;;
60100;SDS011;45978;53.646;55.930;2023-01-26T03:20:05;76.88;;;26.25;;
60100;SDS011;45978;53.646;55.930;2023-01-26T03:21:27;77.65;;;27.80;;
60100;SDS011;45978;53.646;55.930;2023-01-26T03:22:47;76.22;;;27.58;;
60100;SDS011;45978;53.646;55.930;2023-01-26T03:24:09;59.85;;;21.92;;
60100;SDS011;45978;53.646;55.930;2023-01-26T03:25:31;62.83;;;25.33;;
60100;SDS011;45978;53.646;55.930;2023-01-26T03:26:51;75.20;;;25.70;;
60100;SDS011;45978;53.646;55.930;2023-01-26T03:28:11;59.13;;;22.75;;
60100;SDS011;45978;53.646;55.930;2023-01-26T03:29:14;78.20;;;30.58;;
60100;SDS011;45978;53.646;55.930;2023-01-26T03:30:17;64.13;;;23.80;;
60100;SDS011;45978;53.646;55.930;2023-01-26T03:31:21;81.70;;;28.15;;
60100;SDS011;45978;53.646;55.930;2023-01-26T03:32:22;68.07;;;25.00;;
60100;SDS011;45978;53.646;55.930;2023-01-26T03:33:25;83.45;;;28.27;;
60100;SDS011;45978;53.646;55.930;2023-01-26T03:34:28;72.78;;;26.02;;
60100;SDS011;45978;53.646;55.930;2023-01-26T03:35:31;78.75;;;27.20;;
60100;SDS011;45978;53.646;55.930;2023-01-26T03:36:33;79.38;;;26.75;;
60100;SDS011;45978;53.646;55.930;2023-01-26T03:37:39;75.03;;;25.45;;
60100;SDS011;45978;53.646;55.930;2023-01-26T03:38:48;81.13;;;27.40;;
60100;SDS011;45978;53.646;55.930;2023-01-26T03:39:50;60.90;;;20.83;;
60100;SDS011;45978;53.646;55.930;2023-01-26T03:41:10;95.03;;;30.42;;
60100;SDS011;45978;53.646;55.930;2023-01-26T03:42:30;82.97;;;28.77;;
60100;SDS011;45978;53.646;55.930;2023-01-26T03:43:50;84.97;;;30.92;;
60100;SDS011;45978;53.646;55.930;2023-01-26T03:45:09;91.68;;;29.80;;
60100;SDS011;45978;53.646;55.930;2023-01-26T03:46:29;86.43;;;30.95;;
60100;SDS011;45978;53.646;55.930;2023-01-26T03:47:49;77.43;;;29.65;;
60100;SDS011;45978;53.646;55.930;2023-01-26T03:49:09;81.85;;;30.25;;
60100;SDS011;45978;53.646;55.930;2023-01-26T03:50:29;94.38;;;30.17;;
60100;SDS011;45978;53.646;55.930;2023-01-26T03:51:49;75.65;;;28.10;;
60100;SDS011;45978;53.646;55.930;2023-01-26T03:53:21;72.35;;;25.52;;
60100;SDS011;45978;53.646;55.930;2023-01-26T03:54:44;84.55;;;27.75;;
60100;SDS011;45978;53.646;55.930;2023-01-26T03:56:09;84.20;;;29.83;;
60100;SDS011;45978;53.646;55.930;2023-01-26T03:57:31;89.57;;;27.15;;
60100;SDS011;45978;53.646;55.930;2023-01-26T03:58:32;76.60;;;26.95;;
60100;SDS011;45978;53.646;55.930;2023-01-26T03:59:35;83.75;;;26.88;;
60100;SDS011;45978;53.646;55.930;2023-01-26T04:00:44;60.00;;;21.90;;
60100;SDS011;45978;53.646;55.930;2023-01-26T04:01:52;78.00;;;27.85;;
60100;SDS011;45978;53.646;55.930;2023-01-26T04:04:32;59.58;;;22.60;;
60100;SDS011;45978;53.646;55.930;2023-01-26T04:05:56;78.13;;;26.70;;
60100;SDS011;45978;53.646;55.930;2023-01-26T04:07:22;74.75;;;27.20;;
60100;SDS011;45978;53.646;55.930;2023-01-26T04:08:43;63.67;;;21.75;;
60100;SDS011;45978;53.646;55.930;2023-01-26T04:09:46;64.07;;;23.25;;
60100;SDS011;45978;53.646;55.930;2023-01-26T04:10:51;81.72;;;27.67;;
60100;SDS011;45978;53.646;55.930;2023-01-26T04:11:53;70.25;;;24.10;;
60100;SDS011;45978;53.646;55.930;2023-01-26T04:12:54;64.75;;;23.95;;
60100;SDS011;45978;53.646;55.930;2023-01-26T04:14:20;67.10;;;24.85;;
60100;SDS011;45978;53.646;55.930;2023-01-26T04:15:40;71.65;;;24.77;;
60100;SDS011;45978;53.646;55.930;2023-01-26T04:17:00;68.00;;;23.13;;
60100;SDS011;45978;53.646;55.930;2023-01-26T04:18:21;56.13;;;20.23;;
60100;SDS011;45978;53.646;55.930;2023-01-26T04:19:41;63.03;;;21.08;;
60100;SDS011;45978;53.646;55.930;2023-01-26T04:21:04;80.78;;;26.25;;
60100;SDS011;45978;53.646;55.930;2023-01-26T04:22:25;65.93;;;24.77;;
60100;SDS011;45978;53.646;55.930;2023-01-26T04:23:27;65.70;;;24.92;;
60100;SDS011;45978;53.646;55.930;2023-01-26T04:24:29;71.28;;;27.00;;
60100;SDS011;45978;53.646;55.930;2023-01-26T04:25:31;60.83;;;21.50;;
60100;SDS011;45978;53.646;55.930;2023-01-26T04:26:32;77.32;;;27.15;;
60100;SDS011;45978;53.646;55.930;2023-01-26T04:27:41;70.43;;;25.77;;
60100;SDS011;45978;53.646;55.930;2023-01-26T04:28:44;82.13;;;26.30;;
60100;SDS011;45978;53.646;55.930;2023-01-26T04:29:45;69.65;;;24.48;;
60100;SDS011;45978;53.646;55.930;2023-01-26T04:30:48;68.55;;;24.65;;
60100;SDS011;45978;53.646;55.930;2023-01-26T04:31:54;71.38;;;24.25;;
60100;SDS011;45978;53.646;55.930;2023-01-26T04:32:56;70.72;;;25.63;;
60100;SDS011;45978;53.646;55.930;2023-01-26T04:33:59;75.78;;;25.10;;
60100;SDS011;45978;53.646;55.930;2023-01-26T04:35:03;66.45;;;22.60;;
60100;SDS011;45978;53.646;55.930;2023-01-26T04:36:07;79.03;;;27.77;;
60100;SDS011;45978;53.646;55.930;2023-01-26T04:37:15;83.28;;;26.73;;
60100;SDS011;45978;53.646;55.930;2023-01-26T04:38:22;70.90;;;25.27;;
60100;SDS011;45978;53.646;55.930;2023-01-26T04:39:23;62.28;;;23.50;;
60100;SDS011;45978;53.646;55.930;2023-01-26T04:40:28;38.90;;;14.10;;
60100;SDS011;45978;53.646;55.930;2023-01-26T04:41:31;56.45;;;21.35;;
60100;SDS011;45978;53.646;55.930;2023-01-26T04:42:40;53.28;;;20.77;;
60100;SDS011;45978;53.646;55.930;2023-01-26T04:43:42;44.58;;;16.95;;
60100;SDS011;45978;53.646;55.930;2023-01-26T04:44:45;42.05;;;15.90;;
60100;SDS011;45978;53.646;55.930;2023-01-26T04:46:04;42.33;;;16.35;;
60100;SDS011;45978;53.646;55.930;2023-01-26T04:47:09;49.13;;;19.35;;
60100;SDS011;45978;53.646;55.930;2023-01-26T04:48:11;44.92;;;18.17;;
60100;SDS011;45978;53.646;55.930;2023-01-26T04:49:13;56.20;;;19.08;;
60100;SDS011;45978;53.646;55.930;2023-01-26T04:50:15;36.13;;;13.85;;
60100;SDS011;45978;53.646;55.930;2023-01-26T04:51:20;36.47;;;15.20;;
60100;SDS011;45978;53.646;55.930;2023-01-26T04:52:22;32.28;;;13.57;;
60100;SDS011;45978;53.646;55.930;2023-01-26T04:53:23;42.67;;;15.88;;
60100;SDS011;45978;53.646;55.930;2023-01-26T04:54:26;30.67;;;13.60;;
60100;SDS011;45978;53.646;55.930;2023-01-26T04:55:27;28.42;;;13.27;;
60100;SDS011;45978;53.646;55.930;2023-01-26T04:56:30;36.17;;;14.32;;
60100;SDS011;45978;53.646;55.930;2023-01-26T04:57:34;30.13;;;12.82;;
60100;SDS011;45978;53.646;55.930;2023-01-26T04:58:39;31.92;;;11.43;;
60100;SDS011;45978;53.646;55.930;2023-01-26T04:59:40;23.15;;;9.25;;
60100;SDS011;45978;53.646;55.930;2023-01-26T05:00:41;29.70;;;10.13;;
60100;SDS011;45978;53.646;55.930;2023-01-26T05:01:43;17.15;;;9.00;;
60100;SDS011;45978;53.646;55.930;2023-01-26T05:02:45;19.63;;;8.38;;
60100;SDS011;45978;53.646;55.930;2023-01-26T05:03:46;22.58;;;9.43;;
60100;SDS011;45978;53.646;55.930;2023-01-26T05:04:48;37.45;;;12.45;;
60100;SDS011;45978;53.646;55.930;2023-01-26T05:05:50;17.45;;;6.82;;
60100;SDS011;45978;53.646;55.930;2023-01-26T05:06:55;31.85;;;12.35;;
60100;SDS011;45978;53.646;55.930;2023-01-26T05:07:59;28.42;;;9.82;;
60100;SDS011;45978;53.646;55.930;2023-01-26T05:09:04;32.17;;;13.75;;
60100;SDS011;45978;53.646;55.930;2023-01-26T05:10:08;29.10;;;12.70;;
60100;SDS011;45978;53.646;55.930;2023-01-26T05:11:31;32.08;;;12.05;;
60100;SDS011;45978;53.646;55.930;2023-01-26T05:12:48;34.33;;;13.20;;
60100;SDS011;45978;53.646;55.930;2023-01-26T05:14:01;23.17;;;9.27;;
60100;SDS011;45978;53.646;55.930;2023-01-26T05:15:32;25.83;;;10.05;;
60100;SDS011;45978;53.646;55.930;2023-01-26T05:16:38;37.08;;;14.55;;
60100;SDS011;45978;53.646;55.930;2023-01-26T05:18:04;26.33;;;11.07;;
60100;SDS011;45978;53.646;55.930;2023-01-26T05:19:16;23.80;;;9.02;;
60100;SDS011;45978;53.646;55.930;2023-01-26T05:20:24;26.95;;;10.60;;
60100;SDS011;45978;53.646;55.930;2023-01-26T05:21:48;22.90;;;9.60;;
60100;SDS011;45978;53.646;55.930;2023-01-26T05:22:49;29.13;;;11.82;;
60100;SDS011;45978;53.646;55.930;2023-01-26T05:24:11;18.10;;;9.75;;
60100;SDS011;45978;53.646;55.930;2023-01-26T05:25:37;21.02;;;9.43;;
60100;SDS011;45978;53.646;55.930;2023-01-26T05:26:42;24.60;;;10.43;;
60100;SDS011;45978;53.646;55.930;2023-01-26T05:27:51;30.27;;;12.23;;
60100;SDS011;45978;53.646;55.930;2023-01-26T05:28:53;21.73;;;10.25;;
60100;SDS011;45978;53.646;55.930;2023-01-26T05:29:54;30.70;;;13.35;;
60100;SDS011;45978;53.646;55.930;2023-01-26T05:30:59;31.77;;;13.75;;
60100;SDS011;45978;53.646;55.930;2023-01-26T05:32:01;24.65;;;10.30;;
60100;SDS011;45978;53.646;55.930;2023-01-26T05:33:03;31.05;;;12.45;;
60100;SDS011;45978;53.646;55.930;2023-01-26T05:34:07;44.67;;;15.75;;
60100;SDS011;45978;53.646;55.930;2023-01-26T05:35:10;35.65;;;14.30;;
60100;SDS011;45978;53.646;55.930;2023-01-26T05:36:11;48.03;;;17.95;;
60100;SDS011;45978;53.646;55.930;2023-01-26T05:37:12;30.65;;;12.70;;
60100;SDS011;45978;53.646;55.930;2023-01-26T05:38:17;36.25;;;13.40;;
60100;SDS011;45978;53.646;55.930;2023-01-26T05:39:24;48.17;;;18.08;;
60100;SDS011;45978;53.646;55.930;2023-01-26T05:40:25;43.50;;;16.77;;
60100;SDS011;45978;53.646;55.930;2023-01-26T05:41:27;41.38;;;15.73;;
60100;SDS011;45978;53.646;55.930;2023-01-26T05:43:05;38.97;;;14.13;;
60100;SDS011;45978;53.646;55.930;2023-01-26T05:45:48;56.95;;;22.58;;
60100;SDS011;45978;53.646;55.930;2023-01-26T05:46:52;36.97;;;13.43;;
60100;SDS011;45978;53.646;55.930;2023-01-26T05:47:55;62.33;;;22.30;;
60100;SDS011;45978;53.646;55.930;2023-01-26T05:48:57;67.32;;;23.75;;
60100;SDS011;45978;53.646;55.930;2023-01-26T05:49:59;53.00;;;17.25;;
60100;SDS011;45978;53.646;55.930;2023-01-26T05:51:04;59.15;;;18.55;;
60100;SDS011;45978;53.646;55.930;2023-01-26T05:52:08;38.88;;;14.70;;
60100;SDS011;45978;53.646;55.930;2023-01-26T05:53:10;51.72;;;19.13;;
60100;SDS011;45978;53.646;55.930;2023-01-26T05:54:12;46.25;;;18.70;;
60100;SDS011;45978;53.646;55.930;2023-01-26T05:55:14;43.80;;;16.77;;
60100;SDS011;45978;53.646;55.930;2023-01-26T05:56:16;44.85;;;17.55;;
60100;SDS011;45978;53.646;55.930;2023-01-26T05:57:22;41.28;;;15.73;;
60100;SDS011;45978;53.646;55.930;2023-01-26T05:58:28;35.75;;;12.70;;
60100;SDS011;45978;53.646;55.930;2023-01-26T05:59:30;36.42;;;15.43;;
60100;SDS011;45978;53.646;55.930;2023-01-26T06:00:34;41.67;;;14.18;;
60100;SDS011;45978;53.646;55.930;2023-01-26T06:01:42;42.58;;;16.48;;
60100;SDS011;45978;53.646;55.930;2023-01-26T06:02:45;47.97;;;19.83;;
60100;SDS011;45978;53.646;55.930;2023-01-26T06:03:48;38.65;;;14.52;;
60100;SDS011;45978;53.646;55.930;2023-01-26T06:04:50;36.10;;;15.35;;
60100;SDS011;45978;53.646;55.930;2023-01-26T06:05:53;57.17;;;21.10;;
60100;SDS011;45978;53.646;55.930;2023-01-26T06:07:15;18.15;;;6.78;;
60100;SDS011;45978;53.646;55.930;2023-01-26T06:08:35;50.92;;;18.00;;
60100;SDS011;45978;53.646;55.930;2023-01-26T06:09:56;34.53;;;13.27;;
60100;SDS011;45978;53.646;55.930;2023-01-26T06:11:16;31.92;;;13.63;;
60100;SDS011;45978;53.646;55.930;2023-01-26T06:12:38;24.40;;;10.45;;
60100;SDS011;45978;53.646;55.930;2023-01-26T06:14:05;28.38;;;11.95;;
60100;SDS011;45978;53.646;55.930;2023-01-26T06:15:08;38.13;;;15.40;;
60100;SDS011;45978;53.646;55.930;2023-01-26T06:16:16;32.90;;;15.10;;
60100;SDS011;45978;53.646;55.930;2023-01-26T06:17:18;21.73;;;9.55;;
60100;SDS011;45978;53.646;55.930;2023-01-26T06:18:24;20.98;;;8.88;;
60100;SDS011;45978;53.646;55.930;2023-01-26T06:19:28;28.05;;;10.88;;
60100;SDS011;45978;53.646;55.930;2023-01-26T06:20:32;32.08;;;13.57;;
60100;SDS011;45978;53.646;55.930;2023-01-26T06:21:35;18.45;;;9.45;;
60100;SDS011;45978;53.646;55.930;2023-01-26T06:22:38;19.35;;;9.57;;
60100;SDS011;45978;53.646;55.930;2023-01-26T06:23:39;18.90;;;9.23;;
60100;SDS011;45978;53.646;55.930;2023-01-26T06:24:40;22.70;;;10.88;;
60100;SDS011;45978;53.646;55.930;2023-01-26T06:25:43;12.75;;;5.38;;
60100;SDS011;45978;53.646;55.930;2023-01-26T06:26:46;20.67;;;9.57;;
60100;SDS011;45978;53.646;55.930;2023-01-26T06:27:48;13.55;;;6.53;;
60100;SDS011;45978;53.646;55.930;2023-01-26T06:28:59;18.70;;;8.63;;
60100;SDS011;45978;53.646;55.930;2023-01-26T06:30:04;14.07;;;5.40;;
60100;SDS011;45978;53.646;55.930;2023-01-26T06:31:08;17.13;;;6.97;;